createdAt,value
2019-05-16T00:00:12.520Z,0.00
2019-05-16T00:01:12.576Z,0.00
2019-05-16T00:02:12.512Z,0.00
2019-05-16T00:03:12.559Z,0.00
2019-05-16T00:04:12.473Z,0.00
2019-05-16T00:05:12.571Z,0.00
2019-05-16T00:06:12.477Z,0.00
2019-05-16T00:07:12.452Z,0.00
2019-05-16T00:08:13.233Z,0.00
2019-05-16T00:09:12.424Z,0.00
2019-05-16T00:10:12.409Z,0.00
2019-05-16T00:11:12.438Z,0.00
2019-05-16T00:12:12.390Z,0.00
2019-05-16T00:13:12.421Z,0.00
2019-05-16T00:14:12.376Z,0.00
2019-05-16T00:15:13.463Z,0.00
2019-05-16T00:16:12.364Z,0.00
2019-05-16T00:17:20.339Z,0.00
2019-05-16T00:18:12.323Z,0.00
2019-05-16T00:19:19.865Z,0.00
2019-05-16T00:20:12.314Z,0.00
2019-05-16T00:21:13.330Z,0.00
2019-05-16T00:22:12.279Z,0.00
2019-05-16T00:23:12.294Z,0.00
2019-05-16T00:24:12.258Z,0.00
2019-05-16T00:25:12.301Z,0.00
2019-05-16T00:26:12.259Z,0.00
2019-05-16T00:27:12.315Z,0.00
2019-05-16T00:28:12.218Z,0.00
2019-05-16T00:29:12.227Z,0.00
2019-05-16T00:30:12.193Z,0.00
2019-05-16T00:31:12.276Z,0.00
2019-05-16T00:32:12.175Z,0.00
2019-05-16T00:33:12.309Z,0.00
2019-05-16T00:34:12.157Z,0.00
2019-05-16T00:35:12.163Z,0.00
2019-05-16T00:36:12.142Z,0.00
2019-05-16T00:37:12.177Z,0.00
2019-05-16T00:38:12.134Z,0.00
2019-05-16T00:39:12.192Z,0.00
2019-05-16T00:40:12.086Z,0.00
2019-05-16T00:41:12.133Z,0.00
2019-05-16T00:42:12.071Z,0.00
2019-05-16T00:43:12.113Z,0.00
2019-05-16T00:44:12.043Z,0.00
2019-05-16T00:45:13.487Z,0.00
2019-05-16T00:46:12.023Z,0.00
2019-05-16T00:47:12.071Z,0.00
2019-05-16T00:48:12.007Z,0.00
2019-05-16T00:49:12.057Z,0.00
2019-05-16T00:50:11.978Z,0.00
2019-05-16T00:51:12.067Z,0.00
2019-05-16T00:52:11.971Z,0.00
2019-05-16T00:53:11.978Z,0.00
2019-05-16T00:54:11.938Z,0.00
2019-05-16T00:55:11.997Z,0.00
2019-05-16T00:56:11.913Z,0.00
2019-05-16T00:57:11.933Z,0.00
2019-05-16T00:58:11.904Z,0.00
2019-05-16T00:59:11.895Z,0.00
2019-05-16T01:00:11.877Z,0.00
2019-05-16T01:01:12.953Z,0.00
2019-05-16T01:02:12.256Z,0.00
2019-05-16T01:03:29.161Z,0.00
2019-05-16T01:04:11.824Z,0.00
2019-05-16T01:05:14.565Z,0.00
2019-05-16T01:06:19.178Z,0.00
2019-05-16T01:07:12.813Z,0.00
2019-05-16T01:08:11.789Z,0.00
2019-05-16T01:09:11.771Z,0.00
2019-05-16T01:10:11.786Z,0.00
2019-05-16T01:11:11.753Z,0.00
2019-05-16T01:12:11.831Z,0.00
2019-05-16T01:13:11.727Z,0.00
2019-05-16T01:14:11.816Z,0.00
2019-05-16T01:15:11.712Z,0.00
2019-05-16T01:16:11.726Z,0.00
2019-05-16T01:17:11.696Z,0.00
2019-05-16T01:18:11.739Z,0.00
2019-05-16T01:19:11.668Z,0.00
2019-05-16T01:20:11.755Z,0.00
2019-05-16T01:21:11.644Z,0.00
2019-05-16T01:22:11.701Z,0.00
2019-05-16T01:23:11.632Z,0.00
2019-05-16T01:24:11.678Z,0.00
2019-05-16T01:25:11.615Z,0.00
2019-05-16T01:26:11.691Z,0.00
2019-05-16T01:27:11.592Z,0.00
2019-05-16T01:28:11.604Z,0.00
2019-05-16T01:29:11.891Z,0.00
2019-05-16T01:30:11.617Z,0.00
2019-05-16T01:31:11.529Z,0.00
2019-05-16T01:32:11.559Z,0.00
2019-05-16T01:33:11.524Z,0.00
2019-05-16T01:34:11.543Z,0.00
2019-05-16T01:35:11.487Z,0.00
2019-05-16T01:36:11.559Z,0.00
2019-05-16T01:37:11.485Z,0.00
2019-05-16T01:38:11.469Z,0.00
2019-05-16T01:39:11.448Z,0.00
2019-05-16T01:40:11.481Z,0.00
2019-05-16T01:41:11.421Z,0.00
2019-05-16T01:42:11.432Z,0.00
2019-05-16T01:43:11.398Z,0.00
2019-05-16T01:44:11.406Z,0.00
2019-05-16T01:45:11.379Z,0.00
2019-05-16T01:46:11.421Z,0.00
2019-05-16T01:47:11.369Z,0.00
2019-05-16T01:48:14.767Z,0.00
2019-05-16T01:49:11.341Z,0.00
2019-05-16T01:50:11.345Z,0.00
2019-05-16T01:51:11.320Z,0.00
2019-05-16T01:52:12.416Z,0.00
2019-05-16T01:53:11.296Z,0.00
2019-05-16T01:54:12.295Z,0.00
2019-05-16T01:55:11.267Z,0.00
2019-05-16T01:56:11.286Z,0.00
2019-05-16T01:57:11.260Z,0.00
2019-05-16T01:58:11.298Z,0.00
2019-05-16T01:59:11.224Z,0.00
2019-05-16T02:00:11.322Z,0.00
2019-05-16T02:01:15.758Z,0.00
2019-05-16T02:02:11.227Z,0.00
2019-05-16T02:03:11.187Z,0.00
2019-05-16T02:04:12.347Z,0.00
2019-05-16T02:05:11.159Z,0.00
2019-05-16T02:06:11.256Z,0.00
2019-05-16T02:07:12.221Z,0.00
2019-05-16T02:08:11.193Z,0.00
2019-05-16T02:09:11.483Z,0.00
2019-05-16T02:10:11.174Z,0.00
2019-05-16T02:11:11.090Z,0.00
2019-05-16T02:12:11.084Z,0.00
2019-05-16T02:13:11.089Z,0.00
2019-05-16T02:14:11.100Z,0.00
2019-05-16T02:15:11.049Z,0.00
2019-05-16T02:16:11.113Z,0.00
2019-05-16T02:17:11.386Z,0.00
2019-05-16T02:18:11.069Z,0.00
2019-05-16T02:19:11.006Z,0.00
2019-05-16T02:20:11.038Z,0.00
2019-05-16T02:21:10.985Z,0.00
2019-05-16T02:22:11.053Z,0.00
2019-05-16T02:23:10.978Z,0.00
2019-05-16T02:24:10.965Z,0.00
2019-05-16T02:25:10.946Z,0.00
2019-05-16T02:26:10.977Z,0.00
2019-05-16T02:27:10.923Z,0.00
2019-05-16T02:28:11.024Z,0.00
2019-05-16T02:29:13.719Z,0.00
2019-05-16T02:30:12.377Z,0.00
2019-05-16T02:31:12.026Z,0.00
2019-05-16T02:32:12.970Z,0.00
2019-05-16T02:33:11.599Z,0.00
2019-05-16T02:34:12.212Z,0.00
2019-05-16T02:35:11.957Z,0.00
2019-05-16T02:36:11.163Z,0.00
2019-05-16T02:37:23.822Z,0.00
2019-05-16T02:38:11.812Z,0.00
2019-05-16T02:39:12.807Z,0.00
2019-05-16T02:40:11.898Z,0.00
2019-05-16T02:41:10.790Z,0.00
2019-05-16T02:42:11.992Z,0.00
2019-05-16T02:43:12.528Z,0.00
2019-05-16T02:44:12.049Z,0.00
2019-05-16T02:45:11.198Z,0.00
2019-05-16T02:46:11.953Z,0.00
2019-05-16T02:47:11.114Z,0.00
2019-05-16T02:48:11.151Z,0.00
2019-05-16T02:49:11.594Z,0.00
2019-05-16T02:50:12.386Z,0.00
2019-05-16T02:51:11.154Z,0.00
2019-05-16T02:52:11.035Z,0.00
2019-05-16T02:53:12.779Z,0.00
2019-05-16T02:54:11.139Z,0.00
2019-05-16T02:55:11.590Z,0.00
2019-05-16T02:56:12.125Z,4.00
2019-05-16T02:57:11.478Z,4.00
2019-05-16T02:58:11.454Z,4.00
2019-05-16T02:59:11.877Z,0.00
2019-05-16T03:00:12.121Z,4.00
2019-05-16T03:01:11.060Z,4.00
2019-05-16T03:02:11.371Z,4.00
2019-05-16T03:03:11.996Z,4.00
2019-05-16T03:04:11.199Z,4.00
2019-05-16T03:05:12.078Z,8.00
2019-05-16T03:06:11.195Z,8.00
2019-05-16T03:07:13.500Z,8.00
2019-05-16T03:08:12.238Z,12.00
2019-05-16T03:09:11.554Z,12.00
2019-05-16T03:10:11.080Z,12.00
2019-05-16T03:11:11.900Z,12.00
2019-05-16T03:12:10.810Z,16.00
2019-05-16T03:13:11.332Z,20.00
2019-05-16T03:14:11.182Z,20.00
2019-05-16T03:15:11.037Z,20.00
2019-05-16T03:16:11.711Z,24.00
2019-05-16T03:17:12.478Z,28.00
2019-05-16T03:18:11.480Z,28.00
2019-05-16T03:19:11.519Z,32.00
2019-05-16T03:20:11.723Z,40.00
2019-05-16T03:21:11.174Z,40.00
2019-05-16T03:22:11.668Z,44.00
2019-05-16T03:23:11.556Z,48.00
2019-05-16T03:24:11.244Z,52.00
2019-05-16T03:25:12.311Z,56.00
2019-05-16T03:26:11.888Z,60.00
2019-05-16T03:27:10.849Z,60.00
2019-05-16T03:28:11.268Z,68.00
2019-05-16T03:29:11.323Z,72.00
2019-05-16T03:30:15.377Z,76.00
2019-05-16T03:31:15.128Z,84.00
2019-05-16T03:32:14.046Z,88.00
2019-05-16T03:33:19.056Z,96.00
2019-05-16T03:34:16.173Z,104.00
2019-05-16T03:35:15.508Z,112.00
2019-05-16T03:36:14.848Z,120.00
2019-05-16T03:37:14.305Z,132.00
2019-05-16T03:38:12.093Z,148.00
2019-05-16T03:39:10.816Z,164.00
2019-05-16T03:40:11.047Z,184.00
2019-05-16T03:41:11.513Z,208.00
2019-05-16T03:42:12.709Z,232.00
2019-05-16T03:43:11.581Z,252.00
2019-05-16T03:44:11.316Z,264.00
2019-05-16T03:45:10.846Z,276.00
2019-05-16T03:46:11.874Z,288.00
2019-05-16T03:47:11.184Z,296.00
2019-05-16T03:48:11.985Z,304.00
2019-05-16T03:49:11.325Z,304.00
2019-05-16T03:50:11.141Z,312.00
2019-05-16T03:51:11.269Z,324.00
2019-05-16T03:52:11.326Z,336.00
2019-05-16T03:53:11.698Z,352.00
2019-05-16T03:54:12.342Z,372.00
2019-05-16T03:55:11.065Z,396.00
2019-05-16T03:56:11.174Z,420.00
2019-05-16T03:57:11.531Z,444.00
2019-05-16T03:58:11.623Z,456.00
2019-05-16T03:59:10.931Z,480.00
2019-05-16T04:00:11.860Z,496.00
2019-05-16T04:01:11.181Z,516.00
2019-05-16T04:02:10.825Z,536.00
2019-05-16T04:03:16.868Z,548.00
2019-05-16T04:04:11.675Z,564.00
2019-05-16T04:05:11.425Z,584.00
2019-05-16T04:06:11.978Z,604.00
2019-05-16T04:07:10.946Z,636.00
2019-05-16T04:08:18.610Z,680.00
2019-05-16T04:09:12.203Z,724.00
2019-05-16T04:10:10.941Z,768.00
2019-05-16T04:11:11.742Z,808.00
2019-05-16T04:12:11.011Z,848.00
2019-05-16T04:13:11.512Z,896.00
2019-05-16T04:14:10.846Z,944.00
2019-05-16T04:15:11.421Z,992.00
2019-05-16T04:16:11.853Z,1024.00
2019-05-16T04:17:10.915Z,1060.00
2019-05-16T04:18:11.117Z,1104.00
2019-05-16T04:19:11.491Z,1144.00
2019-05-16T04:20:11.530Z,1172.00
2019-05-16T04:21:11.799Z,1192.00
2019-05-16T04:22:10.490Z,1212.00
2019-05-16T04:23:11.235Z,1216.00
2019-05-16T04:24:12.166Z,1212.00
2019-05-16T04:25:11.297Z,1220.00
2019-05-16T04:26:11.336Z,1244.00
2019-05-16T04:27:11.978Z,1280.00
2019-05-16T04:28:11.595Z,1320.00
2019-05-16T04:29:11.890Z,1368.00
2019-05-16T04:30:11.803Z,1424.00
2019-05-16T04:31:10.947Z,1500.00
2019-05-16T04:32:10.998Z,1596.00
2019-05-16T04:33:10.896Z,1712.00
2019-05-16T04:34:11.689Z,1824.00
2019-05-16T04:35:11.281Z,1932.00
2019-05-16T04:36:11.053Z,2040.00
2019-05-16T04:37:11.511Z,2144.00
2019-05-16T04:38:13.081Z,2260.00
2019-05-16T04:39:11.825Z,2376.00
2019-05-16T04:40:12.073Z,2484.00
2019-05-16T04:41:11.601Z,2588.00
2019-05-16T04:42:11.037Z,2660.00
2019-05-16T04:43:11.387Z,2700.00
2019-05-16T04:44:11.559Z,2728.00
2019-05-16T04:45:11.873Z,2728.00
2019-05-16T04:46:11.645Z,2720.00
2019-05-16T04:47:11.019Z,2688.00
2019-05-16T04:48:16.355Z,2640.00
2019-05-16T04:49:11.167Z,2580.00
2019-05-16T04:50:14.864Z,2516.00
2019-05-16T04:51:10.565Z,2464.00
2019-05-16T04:52:11.191Z,2408.00
2019-05-16T04:53:11.476Z,2344.00
2019-05-16T04:54:11.438Z,2272.00
2019-05-16T04:55:11.851Z,2180.00
2019-05-16T04:56:11.087Z,2060.00
2019-05-16T04:57:11.832Z,1928.00
2019-05-16T04:58:10.703Z,1836.00
2019-05-16T04:59:15.921Z,1780.00
2019-05-16T05:00:11.172Z,1736.00
2019-05-16T05:01:11.113Z,1684.00
2019-05-16T05:02:12.104Z,1600.00
2019-05-16T05:03:11.945Z,1480.00
2019-05-16T05:04:14.429Z,1360.00
2019-05-16T05:05:12.532Z,1272.00
2019-05-16T05:06:11.321Z,1216.00
2019-05-16T05:07:11.134Z,1196.00
2019-05-16T05:08:10.825Z,1196.00
2019-05-16T05:09:11.725Z,1200.00
2019-05-16T05:10:11.322Z,1208.00
2019-05-16T05:11:10.683Z,1212.00
2019-05-16T05:12:11.355Z,1200.00
2019-05-16T05:13:10.993Z,1212.00
2019-05-16T05:14:10.437Z,1256.00
2019-05-16T05:15:11.157Z,1312.00
2019-05-16T05:16:10.630Z,1372.00
2019-05-16T05:17:10.697Z,1440.00
2019-05-16T05:18:10.203Z,1508.00
2019-05-16T05:19:10.886Z,1564.00
2019-05-16T05:20:10.678Z,1592.00
2019-05-16T05:21:11.597Z,1600.00
2019-05-16T05:22:10.482Z,1584.00
2019-05-16T05:23:09.882Z,1568.00
2019-05-16T05:24:10.897Z,1588.00
2019-05-16T05:25:10.864Z,1676.00
2019-05-16T05:26:10.775Z,1812.00
2019-05-16T05:27:10.501Z,1960.00
2019-05-16T05:28:10.062Z,2096.00
2019-05-16T05:29:10.343Z,2220.00
2019-05-16T05:30:10.571Z,2328.00
2019-05-16T05:31:10.882Z,2428.00
2019-05-16T05:32:14.022Z,2512.00
2019-05-16T05:33:10.195Z,2564.00
2019-05-16T05:34:10.604Z,2580.00
2019-05-16T05:35:10.544Z,2580.00
2019-05-16T05:36:12.444Z,2616.00
2019-05-16T05:37:12.566Z,2720.00
2019-05-16T05:38:10.537Z,2888.00
2019-05-16T05:39:12.982Z,3084.00
2019-05-16T05:40:11.012Z,3308.00
2019-05-16T05:41:10.784Z,3500.00
2019-05-16T05:42:10.505Z,3628.00
2019-05-16T05:43:10.597Z,3756.00
2019-05-16T05:44:10.679Z,3908.00
2019-05-16T05:45:11.014Z,4060.00
2019-05-16T05:46:10.962Z,4188.00
2019-05-16T05:47:10.760Z,4268.00
2019-05-16T05:48:10.667Z,4340.00
2019-05-16T05:49:10.525Z,4456.00
2019-05-16T05:50:10.855Z,4628.00
2019-05-16T05:51:11.086Z,4828.00
2019-05-16T05:52:11.739Z,4976.00
2019-05-16T05:53:10.234Z,5060.00
2019-05-16T05:54:10.926Z,5080.00
2019-05-16T05:55:10.574Z,5044.00
2019-05-16T05:56:11.264Z,4972.00
2019-05-16T05:57:09.915Z,4864.00
2019-05-16T05:58:10.092Z,4776.00
2019-05-16T05:59:11.378Z,4680.00
2019-05-16T06:00:09.928Z,4596.00
2019-05-16T06:01:10.888Z,4528.00
2019-05-16T06:02:11.162Z,4528.00
2019-05-16T06:03:10.553Z,4632.00
2019-05-16T06:04:10.583Z,4820.00
2019-05-16T06:05:10.604Z,5108.00
2019-05-16T06:06:10.559Z,5540.00
2019-05-16T06:07:10.146Z,6104.00
2019-05-16T06:08:10.545Z,6808.00
2019-05-16T06:09:18.291Z,7496.00
2019-05-16T06:10:10.674Z,8156.00
2019-05-16T06:11:10.004Z,8788.00
2019-05-16T06:12:10.492Z,9344.00
2019-05-16T06:13:10.952Z,9780.00
2019-05-16T06:14:09.844Z,10160.00
2019-05-16T06:15:10.061Z,10236.00
2019-05-16T06:16:10.580Z,10024.00
2019-05-16T06:17:11.282Z,9872.00
2019-05-16T06:18:10.649Z,9824.00
2019-05-16T06:19:10.937Z,9912.00
2019-05-16T06:20:14.051Z,10076.00
2019-05-16T06:21:11.475Z,10152.00
2019-05-16T06:22:10.221Z,10116.00
2019-05-16T06:23:10.645Z,10092.00
2019-05-16T06:24:10.569Z,9944.00
2019-05-16T06:25:13.199Z,9808.00
2019-05-16T06:26:12.306Z,10336.00
2019-05-16T06:27:09.822Z,9540.00
2019-05-16T06:28:10.438Z,9308.00
2019-05-16T06:29:10.377Z,9216.00
2019-05-16T06:30:11.118Z,9188.00
2019-05-16T06:31:13.078Z,9124.00
2019-05-16T06:32:10.283Z,9156.00
2019-05-16T06:33:10.236Z,9400.00
2019-05-16T06:34:14.468Z,9620.00
2019-05-16T06:35:09.765Z,9756.00
2019-05-16T06:36:10.831Z,9644.00
2019-05-16T06:37:09.842Z,9588.00
2019-05-16T06:38:09.947Z,9148.00
2019-05-16T06:39:11.208Z,8616.00
2019-05-16T06:40:08.140Z,8328.00
2019-05-16T06:41:10.204Z,8208.00
2019-05-16T06:42:09.820Z,8244.00
2019-05-16T06:43:08.135Z,8348.00
2019-05-16T06:44:10.520Z,8452.00
2019-05-16T06:45:10.372Z,8636.00
2019-05-16T06:46:08.073Z,8872.00
2019-05-16T06:47:16.872Z,9096.00
2019-05-16T06:48:10.015Z,9308.00
2019-05-16T06:49:10.209Z,9540.00
2019-05-16T06:50:08.039Z,9716.00
2019-05-16T06:51:10.573Z,9840.00
2019-05-16T06:52:10.277Z,9988.00
2019-05-16T06:53:10.251Z,10088.00
2019-05-16T06:54:09.931Z,10140.00
2019-05-16T06:55:10.166Z,10128.00
2019-05-16T06:56:10.330Z,10256.00
2019-05-16T06:57:10.394Z,10516.00
2019-05-16T06:58:10.406Z,11008.00
2019-05-16T06:59:10.170Z,11120.00
2019-05-16T07:00:07.924Z,11352.00
2019-05-16T07:01:10.359Z,11692.00
2019-05-16T07:02:07.917Z,11772.00
2019-05-16T07:03:10.241Z,11692.00
2019-05-16T07:04:10.230Z,11832.00
2019-05-16T07:05:10.031Z,12016.00
2019-05-16T07:06:11.033Z,11940.00
2019-05-16T07:07:11.959Z,11844.00
2019-05-16T07:08:07.899Z,12632.00
2019-05-16T07:09:10.319Z,12940.00
2019-05-16T07:10:09.769Z,12728.00
2019-05-16T07:11:07.803Z,12808.00
2019-05-16T07:12:07.816Z,12972.00
2019-05-16T07:13:10.227Z,12908.00
2019-05-16T07:14:10.344Z,12708.00
2019-05-16T07:15:11.904Z,12116.00
2019-05-16T07:16:09.748Z,11408.00
2019-05-16T07:17:09.712Z,11168.00
2019-05-16T07:18:10.800Z,11208.00
2019-05-16T07:19:10.500Z,11228.00
2019-05-16T07:20:10.197Z,11380.00
2019-05-16T07:21:07.700Z,11748.00
2019-05-16T07:22:07.790Z,11788.00
2019-05-16T07:23:09.943Z,11620.00
2019-05-16T07:24:07.702Z,11460.00
2019-05-16T07:25:07.662Z,11352.00
2019-05-16T07:26:09.721Z,11288.00
2019-05-16T07:27:11.552Z,11272.00
2019-05-16T07:28:10.092Z,11276.00
2019-05-16T07:29:07.599Z,11400.00
2019-05-16T07:30:07.639Z,11568.00
2019-05-16T07:31:17.647Z,11768.00
2019-05-16T07:32:08.566Z,11904.00
2019-05-16T07:33:09.684Z,11768.00
2019-05-16T07:34:10.173Z,11516.00
2019-05-16T07:35:09.624Z,11244.00
2019-05-16T07:36:09.746Z,10748.00
2019-05-16T07:37:07.583Z,10024.00
2019-05-16T07:38:07.513Z,9304.00
2019-05-16T07:39:07.596Z,8892.00
2019-05-16T07:40:19.471Z,8740.00
2019-05-16T07:41:11.047Z,8748.00
2019-05-16T07:42:11.053Z,8980.00
2019-05-16T07:43:07.457Z,9168.00
2019-05-16T07:44:10.570Z,9392.00
2019-05-16T07:45:10.001Z,9632.00
2019-05-16T07:46:07.444Z,9572.00
2019-05-16T07:47:07.422Z,9148.00
2019-05-16T07:48:07.418Z,8596.00
2019-05-16T07:49:07.381Z,8064.00
2019-05-16T07:50:07.469Z,7852.00
2019-05-16T07:51:10.098Z,7868.00
2019-05-16T07:52:16.389Z,8160.00
2019-05-16T07:53:07.350Z,8420.00
2019-05-16T07:54:22.873Z,8576.00
2019-05-16T07:55:07.312Z,8540.00
2019-05-16T07:56:10.457Z,8292.00
2019-05-16T07:57:18.545Z,7892.00
2019-05-16T07:58:10.227Z,7392.00
2019-05-16T07:59:07.328Z,6916.00
2019-05-16T08:00:09.518Z,6560.00
2019-05-16T08:01:10.218Z,6308.00
2019-05-16T08:02:10.795Z,5960.00
2019-05-16T08:03:07.278Z,5568.00
2019-05-16T08:04:07.220Z,5384.00
2019-05-16T08:05:07.263Z,5512.00
2019-05-16T08:06:07.198Z,5876.00
2019-05-16T08:07:07.278Z,6300.00
2019-05-16T08:08:07.188Z,6844.00
2019-05-16T08:09:07.979Z,7768.00
2019-05-16T08:10:07.155Z,9060.00
2019-05-16T08:11:07.200Z,10608.00
2019-05-16T08:12:07.128Z,11964.00
2019-05-16T08:13:07.243Z,12812.00
2019-05-16T08:14:07.117Z,12664.00
2019-05-16T08:15:07.130Z,12352.00
2019-05-16T08:16:09.406Z,12252.00
2019-05-16T08:17:07.139Z,12588.00
2019-05-16T08:18:07.062Z,12908.00
2019-05-16T08:19:07.079Z,13352.00
2019-05-16T08:20:07.038Z,13392.00
2019-05-16T08:21:07.067Z,13380.00
2019-05-16T08:22:07.027Z,13308.00
2019-05-16T08:23:07.110Z,13316.00
2019-05-16T08:24:08.343Z,13284.00
2019-05-16T08:25:10.478Z,13184.00
2019-05-16T08:26:06.978Z,13200.00
2019-05-16T08:27:07.005Z,13336.00
2019-05-16T08:28:06.956Z,13392.00
2019-05-16T08:29:07.045Z,13316.00
2019-05-16T08:30:06.931Z,13260.00
2019-05-16T08:31:06.928Z,13632.00
2019-05-16T08:32:06.907Z,14132.00
2019-05-16T08:33:06.942Z,14740.00
2019-05-16T08:34:06.900Z,15744.00
2019-05-16T08:35:10.917Z,17024.00
2019-05-16T08:37:30.664Z,19168.00
2019-05-16T08:38:07.898Z,19744.00
2019-05-16T08:39:06.851Z,19392.00
2019-05-16T08:40:06.887Z,18848.00
2019-05-16T08:41:12.831Z,17568.00
2019-05-16T08:42:08.726Z,16480.00
2019-05-16T08:43:07.831Z,15616.00
2019-05-16T08:44:06.789Z,15008.00
2019-05-16T08:45:06.820Z,14948.00
2019-05-16T08:46:06.753Z,14800.00
2019-05-16T08:47:06.846Z,14940.00
2019-05-16T08:48:06.729Z,14904.00
2019-05-16T08:49:06.773Z,14692.00
2019-05-16T08:50:13.734Z,14420.00
2019-05-16T08:51:07.699Z,13920.00
2019-05-16T08:52:06.686Z,13280.00
2019-05-16T08:53:06.772Z,12632.00
2019-05-16T08:54:06.689Z,11992.00
2019-05-16T08:55:06.683Z,11516.00
2019-05-16T08:56:06.642Z,11460.00
2019-05-16T08:57:24.379Z,11652.00
2019-05-16T08:58:13.259Z,11764.00
2019-05-16T08:59:07.705Z,11624.00
2019-05-16T09:00:06.607Z,11184.00
2019-05-16T09:01:06.621Z,10512.00
2019-05-16T09:02:06.580Z,10116.00
2019-05-16T09:03:06.637Z,9972.00
2019-05-16T09:04:06.607Z,9712.00
2019-05-16T09:05:13.058Z,9820.00
2019-05-16T09:06:11.531Z,10268.00
2019-05-16T09:07:06.565Z,10732.00
2019-05-16T09:08:06.514Z,11216.00
2019-05-16T09:09:22.267Z,11960.00
2019-05-16T09:10:28.429Z,18176.00
2019-05-16T09:10:40.811Z,12284.00
2019-05-16T09:11:27.079Z,11816.00
2019-05-16T09:12:07.907Z,11124.00
2019-05-16T09:13:07.235Z,10220.00
2019-05-16T09:14:07.949Z,9160.00
2019-05-16T09:15:09.696Z,8088.00
2019-05-16T09:16:07.775Z,7420.00
2019-05-16T09:17:07.457Z,7100.00
2019-05-16T09:18:07.555Z,6784.00
2019-05-16T09:19:07.733Z,6468.00
2019-05-16T09:20:07.381Z,6212.00
2019-05-16T09:21:07.315Z,6044.00
2019-05-16T09:22:13.493Z,6144.00
2019-05-16T09:23:07.554Z,6088.00
2019-05-16T09:24:06.868Z,5716.00
2019-05-16T09:25:08.013Z,5452.00
2019-05-16T09:26:07.639Z,5240.00
2019-05-16T09:27:12.213Z,5072.00
2019-05-16T09:28:07.593Z,4836.00
2019-05-16T09:29:08.298Z,4564.00
2019-05-16T09:30:07.197Z,4284.00
2019-05-16T09:31:07.127Z,3948.00
2019-05-16T09:32:12.775Z,3736.00
2019-05-16T09:33:07.400Z,3628.00
2019-05-16T09:34:07.425Z,3648.00
2019-05-16T09:35:07.848Z,3696.00
2019-05-16T09:36:08.031Z,3820.00
2019-05-16T09:37:08.505Z,3924.00
2019-05-16T09:38:07.198Z,4052.00
2019-05-16T09:39:08.340Z,4308.00
2019-05-16T09:40:06.567Z,4648.00
2019-05-16T09:41:07.908Z,4872.00
2019-05-16T09:42:08.254Z,4972.00
2019-05-16T09:43:07.586Z,4936.00
2019-05-16T09:44:08.703Z,4724.00
2019-05-16T09:45:07.324Z,4608.00
2019-05-16T09:46:07.830Z,4664.00
2019-05-16T09:47:07.592Z,4868.00
2019-05-16T09:48:08.120Z,5072.00
2019-05-16T09:49:16.960Z,5300.00
2019-05-16T09:50:07.065Z,5548.00
2019-05-16T09:51:06.767Z,5520.00
2019-05-16T09:52:07.438Z,5332.00
2019-05-16T09:53:07.210Z,5272.00
2019-05-16T09:54:07.189Z,5592.00
2019-05-16T09:55:07.115Z,6252.00
2019-05-16T09:56:07.028Z,6956.00
2019-05-16T09:57:06.567Z,7260.00
2019-05-16T09:58:07.392Z,7384.00
2019-05-16T09:59:06.917Z,7504.00
2019-05-16T10:00:06.784Z,7640.00
2019-05-16T10:01:05.961Z,7732.00
2019-05-16T10:02:07.384Z,7776.00
2019-05-16T10:03:07.138Z,7780.00
2019-05-16T10:04:06.681Z,7760.00
2019-05-16T10:05:13.246Z,7652.00
2019-05-16T10:06:08.078Z,7600.00
2019-05-16T10:08:17.079Z,8504.00
2019-05-16T10:09:17.235Z,9248.00
2019-05-16T10:10:16.904Z,10280.00
2019-05-16T10:11:17.860Z,11936.00
2019-05-16T10:12:16.355Z,13740.00
2019-05-16T10:13:14.569Z,15584.00
2019-05-16T10:14:14.597Z,17920.00
2019-05-16T10:15:14.543Z,19968.00
2019-05-16T10:16:16.686Z,20416.00
2019-05-16T10:17:14.520Z,22688.00
2019-05-16T10:18:16.654Z,23648.00
2019-05-16T10:19:16.805Z,22560.00
2019-05-16T10:20:16.734Z,20416.00
2019-05-16T10:21:17.886Z,20640.00
2019-05-16T10:22:17.045Z,21952.00
2019-05-16T10:23:17.555Z,21280.00
2019-05-16T10:24:14.468Z,23424.00
2019-05-16T10:25:19.029Z,20992.00
2019-05-16T10:26:17.208Z,17088.00
2019-05-16T10:27:14.419Z,14932.00
2019-05-16T10:28:14.491Z,15068.00
2019-05-16T10:29:14.392Z,14272.00
2019-05-16T10:30:14.403Z,12196.00
2019-05-16T10:31:14.391Z,10292.00
2019-05-16T10:32:16.775Z,9128.00
2019-05-16T10:33:18.566Z,8464.00
2019-05-16T10:34:14.430Z,8216.00
2019-05-16T10:35:14.321Z,8112.00
2019-05-16T10:36:17.172Z,7832.00
2019-05-16T10:37:17.614Z,7592.00
2019-05-16T10:38:14.312Z,7452.00
2019-05-16T10:39:14.277Z,7172.00
2019-05-16T10:40:17.672Z,7000.00
2019-05-16T10:41:14.276Z,7060.00
2019-05-16T10:42:27.258Z,6928.00
2019-05-16T10:43:17.244Z,6720.00
2019-05-16T10:44:17.215Z,6564.00
2019-05-16T10:45:16.484Z,6456.00
2019-05-16T10:46:14.251Z,6480.00
2019-05-16T10:47:17.041Z,6820.00
2019-05-16T10:48:14.221Z,7292.00
2019-05-16T10:49:16.505Z,7752.00
2019-05-16T10:50:16.484Z,7948.00
2019-05-16T10:51:14.165Z,8280.00
2019-05-16T10:52:16.533Z,8832.00
2019-05-16T10:53:42.374Z,9044.00
2019-05-16T10:54:18.104Z,8816.00
2019-05-16T10:55:14.125Z,8564.00
2019-05-16T10:56:14.270Z,8624.00
2019-05-16T10:57:14.129Z,8852.00
2019-05-16T10:58:32.470Z,8728.00
2019-05-16T10:59:53.248Z,8048.00
2019-05-16T11:00:34.917Z,7464.00
2019-05-16T11:01:26.615Z,7308.00
2019-05-16T11:02:16.702Z,7440.00
2019-05-16T11:03:14.134Z,7316.00
2019-05-16T11:04:26.181Z,7064.00
2019-05-16T11:05:29.363Z,7072.00
2019-05-16T11:06:25.277Z,7356.00
2019-05-16T11:07:14.974Z,7624.00
2019-05-16T11:08:14.046Z,7756.00
2019-05-16T11:09:13.948Z,7832.00
2019-05-16T11:10:13.965Z,7928.00
2019-05-16T11:11:13.938Z,7928.00
2019-05-16T11:12:13.992Z,7816.00
2019-05-16T11:13:13.908Z,7784.00
2019-05-16T11:14:13.987Z,7728.00
2019-05-16T11:15:13.881Z,7532.00
2019-05-16T11:16:13.910Z,7156.00
2019-05-16T11:17:14.218Z,6672.00
2019-05-16T11:18:13.945Z,6360.00
2019-05-16T11:19:20.252Z,6236.00
2019-05-16T11:20:19.648Z,6128.00
2019-05-16T11:21:19.004Z,5936.00
2019-05-16T11:22:13.817Z,5704.00
2019-05-16T11:23:13.805Z,5500.00
2019-05-16T11:24:13.819Z,5328.00
2019-05-16T11:25:24.696Z,5224.00
2019-05-16T11:26:14.762Z,5312.00
2019-05-16T11:27:13.798Z,5608.00
2019-05-16T11:28:13.743Z,6008.00
2019-05-16T11:29:13.787Z,6364.00
2019-05-16T11:30:17.803Z,6684.00
2019-05-16T11:31:13.813Z,7072.00
2019-05-16T11:32:13.716Z,7336.00
2019-05-16T11:33:13.709Z,7176.00
2019-05-16T11:34:13.673Z,6792.00
2019-05-16T11:35:13.725Z,6536.00
2019-05-16T11:36:13.658Z,6376.00
2019-05-16T11:37:13.767Z,6252.00
2019-05-16T11:38:13.636Z,6088.00
2019-05-16T11:39:13.648Z,5992.00
2019-05-16T11:40:13.614Z,6012.00
2019-05-16T11:41:13.663Z,6028.00
2019-05-16T11:42:13.608Z,6008.00
2019-05-16T11:43:18.315Z,5916.00
2019-05-16T11:44:17.411Z,6032.00
2019-05-16T11:45:13.589Z,6392.00
2019-05-16T11:46:13.542Z,6968.00
2019-05-16T11:47:13.636Z,7396.00
2019-05-16T11:48:13.522Z,7864.00
2019-05-16T11:49:13.611Z,8116.00
2019-05-16T11:50:13.495Z,8652.00
2019-05-16T11:51:13.522Z,9360.00
2019-05-16T11:52:13.493Z,9468.00
2019-05-16T11:53:13.542Z,9336.00
2019-05-16T11:54:13.454Z,9312.00
2019-05-16T11:55:13.556Z,8668.00
2019-05-16T11:56:13.436Z,8180.00
2019-05-16T11:57:13.494Z,8576.00
2019-05-16T11:58:13.411Z,9036.00
2019-05-16T11:59:13.481Z,9208.00
2019-05-16T12:00:13.384Z,9104.00
2019-05-16T12:01:20.350Z,8536.00
2019-05-16T12:02:13.376Z,8228.00
2019-05-16T12:03:28.508Z,8340.00
2019-05-16T12:04:13.346Z,8628.00
2019-05-16T12:05:13.418Z,9224.00
2019-05-16T12:06:13.318Z,9804.00
2019-05-16T12:07:13.355Z,9828.00
2019-05-16T12:08:13.295Z,9664.00
2019-05-16T12:09:13.340Z,9652.00
2019-05-16T12:10:13.276Z,9760.00
2019-05-16T12:11:13.352Z,9976.00
2019-05-16T12:12:13.285Z,10148.00
2019-05-16T12:13:25.240Z,9808.00
2019-05-16T12:14:16.471Z,9204.00
2019-05-16T12:15:16.700Z,8588.00
2019-05-16T12:16:16.378Z,8244.00
2019-05-16T12:17:13.293Z,8244.00
2019-05-16T12:18:13.201Z,8356.00
2019-05-16T12:19:13.203Z,8464.00
2019-05-16T12:20:13.160Z,8424.00
2019-05-16T12:21:13.248Z,8196.00
2019-05-16T12:22:13.140Z,7768.00